Essig, MN

5:06 AM CST on December 22, 2014 (GMT -0600)
Martin Luther College | Change Station
CLOSE
Current Station
Personal Weather Station
Location: New Ulm, MN
Elevation: 980 ft
Nearby Weather Stations

Elev 980 ft 44.31 °N, 94.47 °W | Updated 1 second ago

Fog
Fog
39.2 °F
Feels Like 33 °F
N
9.0
Wind Variable Wind from SSE
Gusts 20.0 mph

Today
High -- | Low -- °F
--% Chance of Precip.
Yesterday
High -- | Low -- °F
Precip. -- in
7:51 AM 4:42 PM
New Moon, 0% visible
Pressure 29.59 in
Visibility 1.5 miles
Clouds Overcast 500 ft
Windchill 33 °F
Dew Point 38 °F
Humidity 96%
Rainfall 0.00 in
Snow Depth Not available.
UV 0.0 out of 12
Pollen .10 out of 12
Air Quality Not available.
Flu Activity Not available.
METAR KULM 221054Z AUTO 16012KT 1 1/2SM UP OVC005 04/04 A2959 RMK AO2

More Conditions Fewer Conditions

Pressure 29.59 in
Visibility 1.5 miles
Clouds Overcast 500 ft
Windchill 33 °F
Dew Point 38 °F
Humidity 96%
Rainfall 0.00 in
Snow Depth Not available.
UV 0.0 out of 12
Pollen .10 out of 12
Air Quality Not available.
Flu Activity Not available.
METAR KULM 221054Z AUTO 16012KT 1 1/2SM UP OVC005 04/04 A2959 RMK AO2

More Conditions Fewer Conditions

10-Day Weather Forecast

Almanac

Astronomy

Dec. 22, 2014 Rise Set
Actual Time
Civil Twilight
Nautical Twilight
Astronomical Twilight
Moon
Length of Visible Light
Length of Day
Tomorrow will be .
, % of the Moon is Illuminated

Today's Extremes

State Highs State Lows

Community

WunderPhotos

Upload Photos

1,779,583 photos uploaded!

WunderBlogs® & News

Nearby

Air Quality

  Air Quality AQ Index Pollutant
Not available.

Snow Depth

Station Depth Elevation

Earthquake Activity

City Distance Mag. Time & Date
Minimum magnitude displayed is 2.5.

Coastal Water Temperatures

Place Temperature

Nearby Weather Stations